Time;durP1;ratioP1;P1;durP2;ratioP2;P2;SDS_P1;SDS_P2;PMS_P1;PMS_P2;Temp;Humidity;BMP_temperature;BMP_pressure;BME280_temperature;BME280_humidity;BME280_pressure;Samples;Min_cycle;Max_cycle;Signal;HPM_P1;HPM_P2
2022/08/24 00:01:19;;;;;;;5.03;3.83;;;23.50;1.00;;;;;;5096145;28;20176;-95
2022/08/24 00:03:46;;;;;;;7.80;4.10;;;23.50;1.00;;;;;;5111654;28;20207;-92
2022/08/24 00:06:16;;;;;;;6.37;3.90;;;23.60;1.00;;;;;;5118752;28;20168;-95
2022/08/24 00:08:42;;;;;;;6.77;4.57;;;23.60;1.00;;;;;;5118602;28;20179;-93
2022/08/24 00:11:10;;;;;;;8.97;3.87;;;23.80;1.00;;;;;;5114591;28;20188;-91
2022/08/24 00:13:50;;;;;;;8.17;4.80;;;23.80;1.00;;;;;;5107941;28;20183;-94
2022/08/24 00:16:17;;;;;;;6.07;4.00;;;23.80;1.00;;;;;;5093019;28;20251;-95
2022/08/24 00:18:44;;;;;;;7.57;4.63;;;23.80;1.00;;;;;;5104069;28;20180;-94
2022/08/24 00:21:11;;;;;;;7.30;4.50;;;23.80;1.00;;;;;;5097270;28;20176;-95
2022/08/24 00:23:37;;;;;;;6.43;4.03;;;23.70;1.00;;;;;;5113073;28;20202;-93
2022/08/24 00:26:06;;;;;;;6.60;4.30;;;23.70;1.00;;;;;;5118755;28;20167;-94
2022/08/24 00:28:32;;;;;;;8.37;4.50;;;23.60;1.00;;;;;;5117520;28;20184;-93
2022/08/24 00:31:20;;;;;;;7.60;4.53;;;23.50;1.00;;;;;;5114094;28;20246;-94
2022/08/24 00:33:49;;;;;;;7.57;4.43;;;23.40;4.30;;;;;;5108081;28;20243;-94
2022/08/24 00:36:16;;;;;;;5.47;4.07;;;23.30;9.20;;;;;;5113794;28;20179;-94
2022/08/24 00:38:43;;;;;;;6.90;4.33;;;23.30;10.10;;;;;;5118418;28;20316;-94
2022/08/24 00:41:10;;;;;;;7.73;4.30;;;23.30;11.20;;;;;;5101020;28;20231;-94
2022/08/24 00:43:36;;;;;;;6.77;4.30;;;23.40;8.50;;;;;;5116157;28;20279;-95
2022/08/24 00:46:29;;;;;;;5.27;4.27;;;23.60;4.90;;;;;;5117831;28;20172;-94
2022/08/24 00:49:08;;;;;;;7.97;3.93;;;23.40;5.70;;;;;;5118116;28;20179;-93
2022/08/24 00:51:46;;;;;;;6.00;4.00;;;23.40;7.70;;;;;;5099695;28;20156;-94
2022/08/24 00:54:17;;;;;;;5.40;4.10;;;23.40;6.70;;;;;;5097880;28;20221;-94
2022/08/24 00:56:55;;;;;;;6.07;3.80;;;23.40;9.70;;;;;;5097345;28;20197;-94
2022/08/24 00:59:29;;;;;;;9.33;4.20;;;23.40;9.90;;;;;;5078569;28;20186;-95
2022/08/24 01:02:04;;;;;;;6.30;4.00;;;23.40;10.60;;;;;;5095976;28;20197;-95
2022/08/24 01:04:38;;;;;;;6.83;4.20;;;23.40;7.60;;;;;;5096989;28;20181;-94
2022/08/24 01:07:04;;;;;;;6.23;3.33;;;23.40;5.10;;;;;;5104888;28;20170;-92
2022/08/24 01:09:29;;;;;;;9.03;4.00;;;23.30;4.10;;;;;;5105633;28;20171;-92
2022/08/24 01:11:57;;;;;;;5.10;3.80;;;23.40;2.60;;;;;;5104548;28;20248;-93
2022/08/24 01:14:23;;;;;;;6.00;3.90;;;23.40;1.00;;;;;;5088629;28;20195;-92
2022/08/24 01:19:47;;;;;;;7.07;3.67;;;23.40;1.00;;;;;;5107517;28;20193;-92
2022/08/24 01:22:28;;;;;;;6.87;3.70;;;23.40;1.00;;;;;;5105459;28;20227;-93
2022/08/24 01:24:54;;;;;;;5.37;3.90;;;23.50;1.00;;;;;;5098665;28;20254;-94
2022/08/24 01:27:22;;;;;;;6.33;4.10;;;23.30;3.60;;;;;;5097093;28;20187;-96
2022/08/24 01:29:49;;;;;;;5.80;3.97;;;23.30;5.10;;;;;;5095206;28;20175;-95
2022/08/24 01:32:21;;;;;;;8.23;3.90;;;23.20;3.70;;;;;;5101538;28;20205;-95
2022/08/24 01:34:48;;;;;;;9.47;4.53;;;23.20;5.10;;;;;;5105998;28;20175;-95
2022/08/24 01:37:14;;;;;;;5.10;3.73;;;23.20;5.40;;;;;;5096484;28;20195;-94
2022/08/24 01:39:45;;;;;;;8.17;4.13;;;23.00;4.80;;;;;;5093764;28;20179;-93
2022/08/24 01:42:14;;;;;;;6.47;3.93;;;23.00;8.20;;;;;;5094999;28;20646;-93
2022/08/24 01:44:43;;;;;;;7.07;3.57;;;23.10;7.80;;;;;;5096063;28;20190;-93
2022/08/24 01:47:10;;;;;;;5.73;3.30;;;23.10;3.70;;;;;;5095648;28;20171;-93
2022/08/24 01:49:42;;;;;;;6.03;3.40;;;23.20;1.00;;;;;;5095400;28;20514;-95
2022/08/24 01:52:11;;;;;;;6.00;3.07;;;23.20;1.00;;;;;;5095610;28;20175;-96
2022/08/24 01:54:39;;;;;;;4.67;3.33;;;23.10;1.00;;;;;;5101980;28;20172;-96
2022/08/24 01:57:05;;;;;;;6.03;3.50;;;23.20;1.00;;;;;;5108248;28;20158;-95
2022/08/24 01:59:31;;;;;;;7.10;3.37;;;23.40;1.00;;;;;;5114115;28;20183;-96
2022/08/24 02:02:17;;;;;;;4.07;3.40;;;23.30;1.00;;;;;;5108392;28;20174;-96
2022/08/24 02:04:43;;;;;;;6.83;3.10;;;23.40;1.00;;;;;;5081231;28;20175;-94
2022/08/24 02:07:12;;;;;;;5.50;3.17;;;23.40;1.00;;;;;;5100207;28;20688;-95
2022/08/24 02:09:41;;;;;;;6.00;3.20;;;23.50;1.00;;;;;;5098238;28;20267;-94
2022/08/24 02:12:07;;;;;;;3.60;2.63;;;23.60;1.00;;;;;;5097913;28;20232;-95
2022/08/24 02:14:34;;;;;;;4.77;2.77;;;23.70;1.00;;;;;;5097891;28;20168;-95
2022/08/24 02:17:03;;;;;;;6.47;3.20;;;23.60;1.00;;;;;;5099018;28;20545;-95
2022/08/24 02:19:29;;;;;;;5.33;3.10;;;23.80;1.00;;;;;;5097700;28;20187;-94
2022/08/24 02:21:54;;;;;;;4.43;3.10;;;23.80;1.00;;;;;;5097936;28;20183;-94
2022/08/24 02:24:20;;;;;;;5.47;3.37;;;23.90;1.00;;;;;;5098071;28;20195;-95
2022/08/24 02:26:48;;;;;;;5.67;3.30;;;24.00;1.00;;;;;;5098059;28;20652;-95
2022/08/24 02:29:13;;;;;;;4.37;2.93;;;24.00;1.00;;;;;;5099768;28;20163;-95
2022/08/24 02:31:39;;;;;;;5.20;3.60;;;24.00;1.00;;;;;;5099419;28;20650;-96
2022/08/24 02:34:05;;;;;;;7.43;3.07;;;23.90;1.00;;;;;;5102272;28;20175;-95
2022/08/24 02:36:31;;;;;;;8.27;3.73;;;23.80;1.00;;;;;;5097065;28;20266;-95
2022/08/24 02:38:57;;;;;;;7.13;3.50;;;23.90;1.00;;;;;;5105157;28;20210;-95
2022/08/24 02:41:24;;;;;;;5.77;3.50;;;23.90;1.00;;;;;;5103684;28;20161;-95
2022/08/24 02:43:51;;;;;;;6.20;3.43;;;23.70;1.00;;;;;;5104022;28;20222;-94
2022/08/24 02:46:22;;;;;;;7.03;3.77;;;23.60;1.00;;;;;;5120961;28;20219;-92
2022/08/24 02:48:49;;;;;;;5.87;3.30;;;23.60;1.00;;;;;;5115910;28;20191;-94
2022/08/24 02:51:32;;;;;;;7.70;3.70;;;23.60;1.00;;;;;;5110901;28;20207;-94
2022/08/24 02:53:59;;;;;;;7.50;3.90;;;23.60;1.00;;;;;;5119688;28;20175;-95
2022/08/24 02:56:28;;;;;;;5.80;3.37;;;23.70;1.00;;;;;;5120948;28;20187;-94
2022/08/24 02:59:00;;;;;;;7.50;3.17;;;23.50;1.00;;;;;;5121364;28;20189;-94
2022/08/24 03:01:30;;;;;;;5.60;3.63;;;23.40;1.00;;;;;;5103652;28;20199;-96
2022/08/24 03:03:59;;;;;;;6.57;3.60;;;23.30;1.00;;;;;;5097432;28;20313;-95
2022/08/24 03:06:25;;;;;;;5.63;3.00;;;23.20;1.00;;;;;;5097378;28;20164;-94
2022/08/24 03:08:51;;;;;;;7.80;3.20;;;23.30;1.00;;;;;;5096623;28;20179;-94
2022/08/24 03:11:17;;;;;;;6.03;3.27;;;23.30;1.00;;;;;;5097555;28;20199;-94
2022/08/24 03:13:43;;;;;;;8.00;3.30;;;23.40;1.00;;;;;;5096752;28;20175;-93
2022/08/24 03:16:08;;;;;;;4.63;2.97;;;23.60;1.00;;;;;;5119389;28;20180;-95
2022/08/24 03:18:35;;;;;;;5.50;3.43;;;23.70;1.00;;;;;;5120494;28;20195;-94
2022/08/24 03:21:02;;;;;;;5.43;3.37;;;23.80;1.00;;;;;;5111518;28;20169;-93
2022/08/24 03:23:40;;;;;;;7.10;3.63;;;23.90;1.00;;;;;;5097837;28;20203;-96
2022/08/24 03:26:06;;;;;;;7.77;3.80;;;23.90;1.00;;;;;;5098849;28;20302;-96
2022/08/24 03:28:32;;;;;;;6.77;3.60;;;23.90;1.00;;;;;;5097964;28;20723;-95
2022/08/24 03:30:58;;;;;;;7.20;3.83;;;23.90;1.00;;;;;;5097623;28;20175;-96
2022/08/24 03:33:24;;;;;;;6.73;3.97;;;23.90;1.00;;;;;;5097790;28;20232;-95
2022/08/24 03:35:50;;;;;;;5.33;3.40;;;23.90;1.00;;;;;;5101216;28;20182;-93
2022/08/24 03:38:16;;;;;;;9.10;3.90;;;24.00;1.00;;;;;;5102216;28;20255;-94
2022/08/24 03:40:42;;;;;;;7.07;3.80;;;23.90;1.00;;;;;;5104218;28;20209;-95
2022/08/24 03:43:44;;;;;;;6.43;3.73;;;24.00;1.00;;;;;;5104642;28;20750;-94
2022/08/24 03:45:55;;;;;;;5.43;3.67;;;24.00;1.00;;;;;;5104728;28;20247;-93
2022/08/24 03:48:23;;;;;;;7.53;4.00;;;24.00;1.00;;;;;;5103758;28;20183;-93
2022/08/24 03:50:49;;;;;;;6.40;4.07;;;24.00;1.00;;;;;;5097195;28;20620;-95
2022/08/24 03:53:16;;;;;;;7.07;3.90;;;24.00;1.00;;;;;;5096737;28;20179;-94
2022/08/24 03:55:42;;;;;;;5.20;3.70;;;24.00;1.00;;;;;;5101941;28;20168;-94
2022/08/24 03:58:09;;;;;;;7.33;4.40;;;24.00;1.00;;;;;;5102748;28;20190;-93
2022/08/24 04:00:34;;;;;;;8.20;5.20;;;24.00;1.00;;;;;;5098279;28;20623;-95
2022/08/24 04:03:01;;;;;;;7.13;5.20;;;24.00;1.00;;;;;;5095977;28;20230;-95
2022/08/24 04:05:30;;;;;;;12.10;5.73;;;24.00;1.00;;;;;;5097722;28;20560;-96
2022/08/24 04:07:57;;;;;;;10.23;6.67;;;24.00;1.00;;;;;;5096464;28;20220;-95
2022/08/24 04:10:25;;;;;;;8.03;6.00;;;23.60;1.00;;;;;;5096938;28;20266;-96
2022/08/24 04:12:50;;;;;;;10.83;5.57;;;23.70;1.00;;;;;;5096265;28;20301;-95
2022/08/24 04:15:17;;;;;;;9.60;6.50;;;23.70;1.00;;;;;;5095483;28;20667;-95
2022/08/24 04:17:43;;;;;;;10.33;5.23;;;23.80;1.00;;;;;;5097820;28;20179;-95
2022/08/24 04:20:09;;;;;;;6.67;4.50;;;23.80;1.00;;;;;;5106329;28;20236;-96
2022/08/24 04:22:35;;;;;;;5.90;4.40;;;23.90;1.00;;;;;;5099841;28;20284;-95
2022/08/24 04:25:02;;;;;;;7.07;4.47;;;23.80;1.00;;;;;;5096690;28;20210;-95
2022/08/24 04:27:29;;;;;;;9.10;4.50;;;23.80;1.00;;;;;;5095230;28;20168;-96
2022/08/24 04:29:55;;;;;;;8.53;5.20;;;23.60;1.00;;;;;;5095460;28;20171;-95
2022/08/24 04:32:22;;;;;;;6.57;5.20;;;23.60;1.00;;;;;;5096131;28;20182;-96
2022/08/24 04:34:47;;;;;;;8.80;5.40;;;23.60;1.00;;;;;;5079823;28;20176;-95
2022/08/24 04:37:13;;;;;;;9.13;5.10;;;23.60;1.00;;;;;;5095861;28;20604;-94
2022/08/24 04:39:40;;;;;;;7.70;5.23;;;23.50;1.00;;;;;;5095168;28;20167;-95
2022/08/24 04:42:07;;;;;;;10.33;4.97;;;23.30;1.00;;;;;;5095460;28;20172;-93
2022/08/24 04:44:32;;;;;;;5.67;4.30;;;23.40;1.00;;;;;;5098177;28;20182;-94
2022/08/24 04:46:58;;;;;;;8.37;5.13;;;23.50;1.00;;;;;;5102681;28;20167;-95
2022/08/24 04:49:24;;;;;;;9.57;4.83;;;23.60;1.00;;;;;;5101154;28;20582;-94
2022/08/24 04:51:50;;;;;;;7.07;4.60;;;23.60;1.00;;;;;;5096523;28;20171;-94
2022/08/24 04:54:16;;;;;;;7.40;4.00;;;23.70;1.00;;;;;;5094272;28;20175;-95
2022/08/24 04:56:43;;;;;;;10.23;4.40;;;23.60;1.00;;;;;;5094633;28;20171;-95
2022/08/24 04:59:09;;;;;;;8.70;4.03;;;23.40;1.00;;;;;;5098591;28;20171;-94
2022/08/24 05:01:35;;;;;;;6.90;4.00;;;23.40;1.00;;;;;;5097254;28;20179;-95
2022/08/24 05:04:05;;;;;;;8.20;3.93;;;23.30;1.00;;;;;;5097317;28;20295;-94
2022/08/24 05:06:32;;;;;;;7.50;4.10;;;23.30;1.00;;;;;;5102703;28;20627;-95
2022/08/24 05:08:59;;;;;;;6.27;3.90;;;23.40;1.00;;;;;;5108462;28;20174;-92
2022/08/24 05:11:27;;;;;;;5.67;3.80;;;23.40;1.00;;;;;;5117988;28;20211;-93
2022/08/24 05:13:55;;;;;;;6.83;3.70;;;23.40;1.00;;;;;;5117181;28;20156;-92
2022/08/24 05:16:22;;;;;;;7.57;4.00;;;23.50;1.00;;;;;;5118111;28;20167;-95
2022/08/24 05:18:51;;;;;;;8.10;3.97;;;23.60;1.00;;;;;;5111437;28;20186;-91
2022/08/24 05:21:19;;;;;;;18.43;5.57;;;23.70;1.00;;;;;;5104630;28;20191;-91
2022/08/24 05:23:46;;;;;;;17.10;5.37;;;23.70;1.00;;;;;;5109312;28;20349;-92
2022/08/24 05:26:19;;;;;;;9.90;4.90;;;23.70;1.00;;;;;;5089855;28;20238;-92
2022/08/24 05:28:46;;;;;;;12.57;4.50;;;23.70;1.00;;;;;;5103242;28;20160;-92
2022/08/24 05:31:22;;;;;;;9.63;4.03;;;23.70;1.00;;;;;;5105799;28;20164;-93
2022/08/24 05:33:49;;;;;;;10.03;4.23;;;23.70;1.00;;;;;;5109055;28;20216;-91
2022/08/24 05:36:22;;;;;;;11.10;4.53;;;23.60;1.00;;;;;;5111461;28;20221;-93
2022/08/24 05:38:53;;;;;;;11.33;4.13;;;23.50;1.00;;;;;;5111243;28;20171;-92
2022/08/24 05:41:19;;;;;;;10.60;4.90;;;23.70;1.00;;;;;;5112595;28;20241;-91
2022/08/24 05:43:58;;;;;;;8.40;5.00;;;23.80;1.00;;;;;;5121484;28;20191;-92
2022/08/24 05:46:31;;;;;;;9.27;4.77;;;24.00;1.00;;;;;;5121651;28;20182;-93
2022/08/24 05:52:23;;;;;;;9.83;4.90;;;24.20;1.00;;;;;;5115851;28;20201;-95
2022/08/24 05:55:00;;;;;;;10.50;6.03;;;24.30;1.00;;;;;;5110621;28;20179;-95
2022/08/24 06:01:11;;;;;;;10.93;5.33;;;24.50;1.00;;;;;;5120055;28;20192;-95
2022/08/24 06:03:38;;;;;;;11.67;5.80;;;24.70;1.00;;;;;;5121406;28;20195;-94
2022/08/24 06:06:05;;;;;;;10.90;6.23;;;24.70;1.00;;;;;;5120269;28;20158;-93
2022/08/24 06:08:35;;;;;;;13.13;6.30;;;24.80;1.00;;;;;;5120126;28;20201;-93
2022/08/24 06:11:01;;;;;;;13.47;7.70;;;24.90;1.00;;;;;;5110019;28;20179;-81
2022/08/24 06:13:28;;;;;;;16.10;7.80;;;24.90;1.00;;;;;;5096576;28;20199;-82
2022/08/24 06:16:05;;;;;;;13.27;7.10;;;24.90;1.00;;;;;;5096573;28;20167;-80
2022/08/24 06:18:31;;;;;;;14.87;7.20;;;25.00;1.00;;;;;;5096264;28;20176;-81
2022/08/24 06:20:57;;;;;;;20.53;9.80;;;25.10;1.00;;;;;;5096346;28;20623;-83
2022/08/24 06:23:23;;;;;;;15.63;8.63;;;25.10;1.00;;;;;;5095279;28;20259;-82
2022/08/24 06:28:57;;;;;;;18.90;11.83;;;25.40;1.00;;;;;;5096564;28;20183;-81
2022/08/24 06:31:23;;;;;;;18.83;12.90;;;25.40;1.00;;;;;;5095752;28;20220;-82
2022/08/24 06:33:50;;;;;;;26.03;12.60;;;25.40;1.00;;;;;;5096517;28;20221;-83
2022/08/24 06:36:18;;;;;;;21.83;13.20;;;25.30;1.00;;;;;;5094635;28;20168;-83
2022/08/24 06:38:45;;;;;;;22.37;12.90;;;25.10;1.00;;;;;;5095729;28;20167;-82
2022/08/24 06:41:11;;;;;;;24.57;14.37;;;25.20;1.00;;;;;;5094068;28;20218;-81
2022/08/24 06:43:37;;;;;;;23.00;14.47;;;25.10;1.00;;;;;;5095023;28;20211;-81
2022/08/24 06:46:03;;;;;;;25.00;15.97;;;25.20;1.00;;;;;;5093998;28;20670;-81
2022/08/24 06:48:29;;;;;;;21.90;15.07;;;25.20;1.00;;;;;;5090667;28;20177;-81
2022/08/24 06:50:56;;;;;;;21.47;16.03;;;25.10;1.00;;;;;;5091081;28;20233;-80
2022/08/24 06:53:22;;;;;;;25.03;18.37;;;25.00;1.00;;;;;;5093112;28;20191;-81
2022/08/24 06:55:57;;;;;;;23.97;18.13;;;24.80;1.00;;;;;;5095612;28;20160;-81
2022/08/24 06:58:25;;;;;;;24.60;19.10;;;24.80;1.00;;;;;;5093904;28;20228;-80
2022/08/24 07:00:50;;;;;;;24.53;17.43;;;24.60;1.00;;;;;;5094641;28;20167;-81
2022/08/24 07:03:17;;;;;;;19.63;16.30;;;24.50;1.00;;;;;;5090782;28;20542;-81
2022/08/24 07:05:56;;;;;;;22.73;16.37;;;24.50;1.00;;;;;;5095390;28;20198;-80
2022/08/24 07:08:23;;;;;;;26.53;18.07;;;24.50;1.00;;;;;;5094222;28;20178;-80
2022/08/24 07:10:50;;;;;;;21.40;15.93;;;24.50;1.00;;;;;;5092522;28;20674;-80
2022/08/24 07:13:16;;;;;;;23.47;17.40;;;24.50;1.00;;;;;;5095298;28;20219;-80
2022/08/24 07:15:42;;;;;;;23.23;14.20;;;24.50;1.00;;;;;;5093469;28;20288;-82
2022/08/24 07:18:12;;;;;;;24.33;15.83;;;24.70;1.00;;;;;;5095062;28;20570;-81
2022/08/24 07:20:38;;;;;;;23.90;15.17;;;24.80;1.00;;;;;;5095243;28;20168;-81
2022/08/24 07:23:05;;;;;;;21.80;15.27;;;24.90;1.00;;;;;;5095110;28;20218;-81
2022/08/24 07:25:32;;;;;;;21.73;15.80;;;24.90;1.00;;;;;;5095394;28;20171;-81
2022/08/24 07:28:01;;;;;;;19.67;15.03;;;24.90;1.00;;;;;;5095345;28;20244;-80
2022/08/24 07:30:28;;;;;;;18.17;14.63;;;25.00;1.00;;;;;;5093226;28;20536;-80
2022/08/24 07:32:55;;;;;;;17.73;13.57;;;25.00;1.00;;;;;;5094808;28;20175;-80
2022/08/24 07:35:22;;;;;;;16.47;13.40;;;25.00;1.00;;;;;;5094525;28;20183;-81
2022/08/24 07:37:49;;;;;;;15.20;12.07;;;24.80;1.00;;;;;;5094706;28;20267;-81
2022/08/24 07:40:15;;;;;;;18.03;12.77;;;24.80;1.00;;;;;;5092211;28;20225;-81
2022/08/24 07:42:41;;;;;;;15.20;10.43;;;24.70;1.00;;;;;;5094449;28;20708;-79
2022/08/24 07:45:07;;;;;;;9.60;8.37;;;24.70;1.00;;;;;;5094758;28;20191;-82
2022/08/24 07:47:33;;;;;;;12.20;9.73;;;24.70;1.00;;;;;;5094716;28;20711;-81
2022/08/24 07:49:59;;;;;;;15.73;9.40;;;24.70;1.00;;;;;;5094312;28;20254;-81
2022/08/24 07:52:25;;;;;;;18.50;9.97;;;24.60;1.00;;;;;;5093290;28;20179;-82
2022/08/24 07:54:50;;;;;;;16.30;8.77;;;24.60;1.00;;;;;;5094692;28;20168;-82
2022/08/24 07:57:16;;;;;;;14.90;8.77;;;24.60;1.00;;;;;;5094517;28;20175;-84
2022/08/24 07:59:42;;;;;;;15.57;8.33;;;24.50;1.00;;;;;;5095717;28;20195;-86
2022/08/24 08:02:10;;;;;;;12.90;8.20;;;24.50;1.00;;;;;;5095494;28;20180;-86
2022/08/24 08:04:36;;;;;;;14.50;8.37;;;24.40;1.00;;;;;;5095153;28;20228;-82
2022/08/24 08:07:02;;;;;;;18.27;8.13;;;24.50;1.00;;;;;;5096392;28;20258;-85
2022/08/24 08:09:28;;;;;;;34.10;8.60;;;24.50;1.00;;;;;;5096770;28;20276;-86
2022/08/24 08:12:00;;;;;;;22.83;8.17;;;24.60;1.00;;;;;;5095149;28;20155;-84
2022/08/24 08:14:26;;;;;;;13.77;7.37;;;24.70;1.00;;;;;;5096445;28;20167;-82
2022/08/24 08:16:52;;;;;;;14.77;7.70;;;24.80;1.00;;;;;;5094021;28;20179;-83
2022/08/24 08:19:24;;;;;;;20.23;8.50;;;24.70;1.00;;;;;;5094790;28;20507;-85
2022/08/24 08:24:43;;;;;;;14.83;8.37;;;25.10;1.00;;;;;;5095434;28;20278;-83
2022/08/24 08:27:10;;;;;;;18.77;9.67;;;25.20;1.00;;;;;;5091753;28;20171;-86
2022/08/24 08:29:39;;;;;;;20.73;9.80;;;25.40;1.00;;;;;;5087404;28;20178;-85
2022/08/24 08:32:06;;;;;;;19.57;10.80;;;25.50;1.00;;;;;;5092731;28;20175;-84
2022/08/24 08:34:32;;;;;;;17.27;10.00;;;25.40;1.00;;;;;;5088863;28;20182;-84
2022/08/24 08:36:59;;;;;;;14.33;9.10;;;25.40;1.00;;;;;;5075476;28;20184;-82
2022/08/24 08:39:26;;;;;;;14.37;9.30;;;25.50;1.00;;;;;;5093831;28;20164;-85
2022/08/24 08:42:13;;;;;;;16.17;8.87;;;25.50;1.00;;;;;;5092520;28;20184;-83
2022/08/24 08:44:44;;;;;;;14.17;8.90;;;25.60;1.00;;;;;;5081805;28;20250;-85
2022/08/24 08:47:47;;;;;;;11.17;9.80;;;25.90;1.00;;;;;;5087194;28;20221;-87
2022/08/24 08:50:29;;;;;;;12.57;9.30;;;26.00;1.00;;;;;;5096173;28;20593;-85
2022/08/24 08:53:16;;;;;;;9.53;8.47;;;26.10;1.00;;;;;;5098415;28;20171;-85
2022/08/24 08:56:13;;;;;;;13.03;8.43;;;26.20;1.00;;;;;;5101098;28;20160;-83
2022/08/24 08:59:00;;;;;;;13.32;9.60;;;26.40;1.00;;;;;;5101556;28;20244;-83
2022/08/24 09:01:29;;;;;;;11.75;6.60;;;26.30;1.00;;;;;;5097506;28;20262;-89
2022/08/24 09:04:18;;;;;;;26.92;7.60;;;26.40;1.00;;;;;;5098701;28;20618;-87
2022/08/24 09:07:03;;;;;;;9.83;5.90;;;26.40;1.00;;;;;;5101291;28;20226;-87
2022/08/24 09:09:40;;;;;;;19.42;6.40;;;26.60;1.00;;;;;;5106375;28;20245;-86
2022/08/24 09:12:40;;;;;;;11.65;6.82;;;26.50;1.00;;;;;;5102869;28;20151;-93
2022/08/24 09:15:49;;;;;;;10.00;6.13;;;26.50;1.00;;;;;;5117369;28;20183;-92
2022/08/24 09:26:11;;;;;;;12.17;7.20;;;26.50;1.00;;;;;;5118667;28;20191;-93
2022/08/24 09:29:17;;;;;;;8.45;6.18;;;26.50;1.00;;;;;;5117961;28;20239;-92
2022/08/24 09:32:38;;;;;;;12.82;7.63;;;26.70;1.00;;;;;;5116547;28;20266;-90
2022/08/24 09:36:13;;;;;;;10.02;7.05;;;26.60;1.00;;;;;;5118341;28;20175;-90
2022/08/24 09:39:04;;;;;;;13.18;7.82;;;26.70;1.00;;;;;;5118334;28;20197;-93
2022/08/24 09:42:18;;;;;;;8.65;5.47;;;26.80;1.00;;;;;;5117824;28;20203;-91
2022/08/24 09:45:39;;;;;;;10.85;6.07;;;27.10;99.90;;;;;;5117299;28;20212;-92
2022/08/24 09:48:55;;;;;;;10.40;7.15;;;27.10;99.90;;;;;;5115287;28;20191;-91
2022/08/24 09:58:32;;;;;;;8.77;5.70;;;27.00;99.90;;;;;;5114583;28;20246;-92
2022/08/24 10:01:27;;;;;;;5.57;4.03;;;27.10;99.90;;;;;;5112389;28;20247;-92
2022/08/24 10:04:35;;;;;;;5.60;3.88;;;27.30;99.90;;;;;;5114958;28;20228;-92
2022/08/24 10:07:23;;;;;;;6.50;4.15;;;27.70;99.90;;;;;;5116748;28;20156;-92
2022/08/24 10:10:43;;;;;;;5.45;3.67;;;27.80;99.90;;;;;;5116501;28;20171;-93
2022/08/24 10:13:45;;;;;;;7.38;3.80;;;27.90;95.10;;;;;;5113334;28;20167;-93
2022/08/24 10:16:53;;;;;;;6.47;2.72;;;27.90;99.90;;;;;;5109862;28;20163;-92
2022/08/24 10:26:49;;;;;;;5.50;2.08;;;28.30;99.90;;;;;;5106079;28;20251;-93
2022/08/24 10:30:11;;;;;;;5.50;3.35;;;28.60;99.90;;;;;;5107238;28;20187;-93
2022/08/24 10:33:16;;;;;;;4.35;2.72;;;28.50;99.90;;;;;;5104981;28;20203;-93
2022/08/24 10:36:02;;;;;;;6.70;2.70;;;28.30;1.00;;;;;;5109666;28;20187;-93
2022/08/24 10:45:50;;;;;;;3.85;2.25;;;28.00;1.00;;;;;;5115940;28;20205;-90
2022/08/24 10:48:28;;;;;;;5.97;2.35;;;28.10;1.00;;;;;;5099548;28;20175;-91
2022/08/24 10:51:27;;;;;;;3.53;1.63;;;28.40;99.90;;;;;;5101207;28;20182;-92
2022/08/24 10:53:55;;;;;;;2.92;1.92;;;28.60;1.00;;;;;;5100714;28;20593;-88
2022/08/24 10:56:59;;;;;;;8.10;2.30;;;28.80;1.00;;;;;;5100359;28;20179;-88
2022/08/24 10:59:39;;;;;;;7.90;2.10;;;28.70;1.00;;;;;;5100791;28;20168;-89
2022/08/24 11:02:26;;;;;;;6.80;1.55;;;28.60;99.90;;;;;;5099856;28;20185;-88
2022/08/24 11:04:59;;;;;;;6.55;1.67;;;28.50;97.10;;;;;;5101721;28;20211;-91
2022/08/24 11:07:26;;;;;;;6.75;1.67;;;28.60;99.90;;;;;;5101382;28;20171;-87
2022/08/24 11:10:05;;;;;;;4.63;1.40;;;28.80;99.90;;;;;;5100802;28;20172;-92
2022/08/24 11:12:44;;;;;;;3.78;1.50;;;28.90;1.00;;;;;;5100961;28;20270;-89
2022/08/24 11:15:28;;;;;;;3.35;1.67;;;29.10;1.00;;;;;;5100799;28;20251;-92
2022/08/24 11:17:59;;;;;;;4.50;1.70;;;29.50;1.00;;;;;;5102098;28;20210;-87
2022/08/24 11:20:30;;;;;;;7.10;1.70;;;29.80;99.90;;;;;;5111955;28;20174;-91
2022/08/24 11:23:06;;;;;;;6.03;1.88;;;29.90;99.90;;;;;;5117598;28;20183;-88
2022/08/24 11:25:43;;;;;;;4.22;1.60;;;30.00;8.60;;;;;;5118907;28;20206;-94
2022/08/24 11:28:40;;;;;;;4.45;1.67;;;30.40;1.00;;;;;;5117499;28;20163;-88
2022/08/24 11:31:51;;;;;;;3.85;1.90;;;30.60;99.90;;;;;;5119911;28;20159;-89
2022/08/24 11:34:38;;;;;;;3.78;1.40;;;30.80;99.90;;;;;;5022793;28;20158;-91
2022/08/24 11:37:14;;;;;;;4.25;1.40;;;30.90;99.90;;;;;;5119224;28;20195;-91
2022/08/24 11:39:44;;;;;;;2.58;1.15;;;30.90;99.90;;;;;;5102290;28;20179;-92
2022/08/24 11:42:31;;;;;;;2.40;0.90;;;31.00;99.90;;;;;;5118657;28;20171;-92
2022/08/24 11:45:46;;;;;;;2.45;0.80;;;31.20;1.00;;;;;;5119843;28;20234;-91
2022/08/24 11:48:52;;;;;;;2.40;1.25;;;31.00;99.90;;;;;;5114765;28;20183;-92
2022/08/24 11:58:31;;;;;;;2.03;1.30;;;31.30;99.90;;;;;;5118894;28;20200;-91
2022/08/24 12:01:22;;;;;;;7.97;1.90;;;31.20;1.00;;;;;;5117880;28;20164;-93
2022/08/24 12:04:37;;;;;;;6.78;1.70;;;31.10;1.00;;;;;;5118570;28;20191;-93
2022/08/24 12:07:24;;;;;;;5.22;1.55;;;31.20;1.00;;;;;;5118151;28;20179;-92
2022/08/24 12:10:31;;;;;;;2.85;1.20;;;31.40;1.00;;;;;;5118460;28;20160;-93
2022/08/24 12:13:27;;;;;;;5.25;2.85;;;31.70;1.00;;;;;;5112843;28;20183;-92
2022/08/24 12:16:23;;;;;;;2.72;1.20;;;31.50;99.90;;;;;;5099268;28;20171;-92
2022/08/24 12:19:18;;;;;;;2.75;1.40;;;31.10;1.00;;;;;;5113304;28;20179;-90
2022/08/24 12:21:48;;;;;;;3.05;1.40;;;30.80;1.00;;;;;;5110525;28;20177;-90
2022/08/24 12:24:28;;;;;;;4.15;1.60;;;31.00;1.00;;;;;;5116686;28;20199;-90
2022/08/24 12:27:03;;;;;;;4.38;1.70;;;31.00;70.70;;;;;;5108963;28;20181;-91
2022/08/24 12:29:41;;;;;;;3.63;1.42;;;31.10;1.00;;;;;;5104825;28;20244;-90
2022/08/24 12:32:26;;;;;;;4.65;1.50;;;30.70;99.90;;;;;;5105860;28;20155;-91
2022/08/24 12:35:02;;;;;;;2.42;1.40;;;30.30;99.90;;;;;;5107505;28;20164;-94
2022/08/24 12:41:14;;;;;;;2.47;1.20;;;30.80;99.90;;;;;;5108893;28;20166;-90
2022/08/24 12:47:02;;;;;;;5.00;1.38;;;31.50;1.00;;;;;;5104492;28;20314;-91
2022/08/24 12:49:47;;;;;;;4.97;1.25;;;31.80;99.90;;;;;;5104200;28;20163;-92
2022/08/24 12:52:47;;;;;;;3.60;1.55;;;32.10;99.90;;;;;;5101619;28;20199;-92
2022/08/24 12:55:25;;;;;;;2.90;1.30;;;31.90;99.90;;;;;;5103267;28;20349;-92
2022/08/24 12:58:28;;;;;;;4.20;1.45;;;31.60;99.90;;;;;;5102811;28;20257;-93
2022/08/24 13:04:54;;;;;;;3.92;1.15;;;31.10;99.90;;;;;;5109490;28;20215;-91
2022/08/24 13:07:47;;;;;;;3.13;1.70;;;31.60;99.90;;;;;;5107536;28;20215;-92
2022/08/24 13:10:55;;;;;;;5.10;1.70;;;32.00;99.90;;;;;;5103093;28;20258;-94
2022/08/24 13:13:42;;;;;;;4.65;1.67;;;32.40;20.80;;;;;;5049366;28;20188;-91
2022/08/24 13:16:46;;;;;;;6.47;1.65;;;32.70;1.00;;;;;;5049967;28;20165;-92
2022/08/24 13:19:40;;;;;;;2.95;1.48;;;32.80;1.00;;;;;;5108763;28;20187;-92
2022/08/24 13:22:34;;;;;;;2.60;1.15;;;32.80;1.00;;;;;;5103744;28;20203;-91
2022/08/24 13:25:23;;;;;;;3.60;1.73;;;32.90;1.00;;;;;;5109287;28;20210;-96
2022/08/24 13:28:05;;;;;;;4.03;1.70;;;33.00;1.00;;;;;;5106109;28;20198;-93
2022/08/24 13:31:02;;;;;;;3.45;1.52;;;33.10;1.00;;;;;;5106129;28;20568;-92
2022/08/24 13:33:58;;;;;;;5.45;2.10;;;32.90;1.00;;;;;;5108026;28;20171;-94
2022/08/24 13:36:37;;;;;;;2.90;1.70;;;33.00;1.00;;;;;;5105198;28;20260;-91
2022/08/24 13:39:36;;;;;;;3.67;1.45;;;32.60;1.00;;;;;;5103244;28;20201;-94
2022/08/24 13:42:56;;;;;;;3.03;1.58;;;32.40;1.00;;;;;;5105036;28;20168;-93
2022/08/24 13:45:45;;;;;;;4.80;1.77;;;32.20;1.00;;;;;;5110226;28;20203;-93
2022/08/24 13:48:49;;;;;;;2.60;1.40;;;32.20;1.00;;;;;;5110118;28;20191;-92
2022/08/24 13:51:28;;;;;;;2.78;1.20;;;32.10;1.00;;;;;;5111551;28;20167;-94
2022/08/24 13:54:16;;;;;;;4.03;1.52;;;31.90;1.00;;;;;;5115111;28;20179;-92
2022/08/24 13:57:09;;;;;;;3.58;1.70;;;32.10;1.00;;;;;;5115989;28;20186;-94
2022/08/24 14:00:18;;;;;;;2.30;1.25;;;32.20;1.00;;;;;;5113817;28;20170;-90
2022/08/24 14:03:23;;;;;;;4.60;1.63;;;32.30;1.00;;;;;;5110284;28;20340;-91
2022/08/24 14:06:25;;;;;;;5.53;1.40;;;32.40;1.00;;;;;;5109916;28;20167;-91
2022/08/24 14:09:02;;;;;;;4.63;1.30;;;32.40;1.00;;;;;;5107837;28;20178;-91
2022/08/24 14:12:10;;;;;;;2.97;1.42;;;32.40;1.00;;;;;;5118916;28;20154;-90
2022/08/24 14:15:18;;;;;;;4.03;1.40;;;32.20;1.00;;;;;;5119495;28;20176;-91
2022/08/24 14:18:27;;;;;;;4.80;1.48;;;32.40;1.00;;;;;;5116904;28;20196;-93
2022/08/24 14:21:10;;;;;;;6.28;1.55;;;32.90;99.90;;;;;;5106822;28;20167;-93
2022/08/24 14:24:12;;;;;;;6.32;2.00;;;33.20;99.90;;;;;;5107516;28;20214;-92
2022/08/24 14:26:47;;;;;;;4.65;1.30;;;33.50;99.90;;;;;;5108307;28;20184;-94
2022/08/24 14:29:31;;;;;;;3.45;1.33;;;33.50;99.90;;;;;;5108050;28;20181;-93
2022/08/24 14:32:09;;;;;;;4.85;1.70;;;33.70;99.90;;;;;;5119957;28;20164;-94
2022/08/24 14:34:55;;;;;;;3.80;1.20;;;33.80;99.90;;;;;;5120884;28;20179;-92
2022/08/24 14:37:27;;;;;;;3.40;1.15;;;33.30;99.90;;;;;;5132463;28;20221;-92
2022/08/24 14:40:22;;;;;;;3.92;1.65;;;33.20;99.90;;;;;;5126024;28;20210;-92